x

Half Moon Bay - 24nm Ssw Of San Francisco, Ca (46012) Wave Buoy

1:50am - Sat 29th Aug 2015 All times are PDT. -7 hours from GMT.

  • Sig Wave height 3.6ft
  • Swell Direction
  • Peak Period 15s
  • Average Period 9s
  • Wind
    7mph, 9mph gusts
  • Sea Temp 63°f
  • Air Temp 62°f
  • Sea Pressure 1014mb
  • Half Moon Bay - 24nm Ssw Of San Francisco, Ca
  • Half Moon Bay - 24nm Ssw Of San Francisco, Ca

More Historic Weather Station data

Upgrade to MSW Pro to gain access to the past 30 days of data for over 8000 Wavebouys and Weather Stations around the globe.

Join Pro

Comparision Forecast

View Surf forecast
   
Sat 08/29 1:50am 3.5ft 15s 9s 7 9 mph 1014mb 63f 62f
12:50am 4ft 15s 9s 4 7 mph 1014.2mb 63f 62f
Fri 08/28 11:50pm 3.5ft 15s 8s 7 9 mph 1013.6mb 62f 62f
10:50pm 3.5ft 15s 8s 4 7 mph 1013.6mb 62f 61f
9:50pm 4ft 15s 8s 4
mph
1013.7mb 62f 61f
8:50pm 4ft 15s 8s 4
mph
1013.1mb 63f 62f
7:50pm 3.5ft 16s 7s 7 9 mph 1012.8mb 64f 62f
6:50pm 4ft 16s 7s 9 11 mph 1012.7mb 63f 62f
5:50pm 4.5ft 15s 8s 9 11 mph 1013.1mb 64f 62f
4:50pm 3.5ft 16s 7s 9 11 mph 1013.1mb 64f 62f
3:50pm 3.5ft 16s 7s 11
mph
1013.1mb 64f 62f
2:50pm 3.5ft 16s 7s 11
mph
1013.4mb 63f 61f
1:50pm 3.5ft 15s 6s 11 13 mph 1013.7mb 63f 61f
12:50pm 3.5ft 15s 6s 7
mph
1013.8mb 63f 61f
11:50am 4ft 16s 6s 4 7 mph 1014.1mb 62f 61f
10:50am 4ft 14s 6s 7
mph
1013.9mb 62f 61f
9:50am 4ft 16s 6s 11 13 mph 1014.2mb 62f 62f
8:50am 4ft 16s 6s 11 16 mph 1014.5mb 62f 62f
7:50am 4.5ft 15s 6s 18 22 mph 1013.7mb 62f 62f
6:50am 4ft 15s 6s 18 20 mph 1013.6mb 62f 62f
5:50am 4ft 16s 6s 7 9 mph 1013.3mb 63f 63f
4:50am 4ft 16s 6s 7 9 mph 1013.7mb 63f 63f
3:50am 4.5ft 16s 6s 4 7 mph 1014.2mb 62f 63f
2:50am 4ft 5s 5s 9
mph
1015.1mb 62f 64f
1:50am 4.5ft 14s 6s 11 13 mph 1015.4mb 62f 64f
12:50am 4.5ft 16s 6s 11 13 mph 1015.3mb 63f 64f
Thu 08/27 11:50pm 4.5ft 14s 6s 9 11 mph 1015.7mb 63f 64f
10:50pm 4.5ft 16s 6s 9 13 mph 1016.1mb 62f 64f
9:50pm 4.5ft 16s 6s 11
mph
1016.1mb 62f 64f
8:50pm 4.5ft 15s 5s 13 16 mph 1015.7mb 62f 64f
7:50pm 4.5ft 14s 5s 18 22 mph 1015.4mb 62f 64f
6:50pm 4ft 16s 5s 18 20 mph 1015.5mb 62f 64f
5:50pm 4ft 16s 5s 18 22 mph 1016.1mb 63f 64f
4:50pm 4ft 16s 6s 18 22 mph 1016.7mb 63f 64f
3:50pm 4.5ft 15s 6s 16 18 mph 1017.7mb 63f 63f
2:50pm 4ft 15s 6s 13 16 mph 1018.2mb 63f 63f
1:50pm 4ft 10s 6s 13
mph
1018.3mb 63f 62f
12:50pm 4ft 16s 6s 11 13 mph 1018.7mb 62f 62f
11:50am 4ft 15s 6s 11
mph
1019mb 62f 62f
10:50am 3.5ft 15s 6s 11
mph
1018.8mb 62f 62f
9:50am 3.5ft 15s 6s 11 13 mph 1018.5mb 62f 62f
8:50am 3.5ft 16s 6s 7 9 mph 1018.6mb 62f 62f
7:50am 4ft 11s 6s 9 11 mph 1018.4mb 62f 62f
6:50am 4ft 15s 6s 11 13 mph 1018.1mb 62f 61f
5:50am 4ft 15s 6s 13 16 mph 1017.8mb 62f 62f
4:50am 3.5ft 14s 7s 11 13 mph 1017.5mb 62f 62f
3:50am 3.5ft 14s 6s 9 11 mph 1017.5mb 62f 62f
2:50am 4.5ft 14s 6s 11
mph
1017.4mb 62f 62f
1:50am 4.5ft 10s 6s 9 11 mph 1017.5mb 62f 62f
12:50am 3.5ft 13s 6s 9 11 mph 1017.3mb 62f 62f
Wed 08/26 11:50pm 4.5ft 10s 6s 9 11 mph 1017.2mb 62f 62f
10:50pm 4.5ft 13s 6s 9 13 mph 1017.4mb 62f 62f
9:50pm 4ft 10s 6s 13 16 mph 1017.3mb 62f 62f
8:50pm 4.5ft 14s 6s 13 16 mph 1016.8mb 62f 62f
7:50pm 4.5ft 11s 5s 16 18 mph 1016.5mb 62f 62f
6:50pm 4.5ft 14s 5s 16 20 mph 1016.4mb 63f 62f
5:50pm 4.5ft 14s 5s 18 20 mph 1016.6mb 63f 62f
4:50pm 4.5ft 11s 5s 18 20 mph 1016.7mb 63f 61f
3:50pm 4.5ft 10s 6s 18 20 mph 1016.8mb 63f 61f
2:50pm 4ft 11s 6s 16 20 mph 1017.2mb 62f 61f
1:50pm 4ft 11s 7s 13 16 mph 1017.5mb 63f 60f
12:50pm 4.5ft 11s 7s 11 13 mph 1017.6mb 62f 61f
11:50am 4.5ft 10s 7s 9 11 mph 1018mb 62f 61f
10:50am 4.5ft 10s 7s 9 13 mph 1018.1mb 62f 60f
9:50am 4ft 10s 7s 9 11 mph 1018mb 62f 60f
8:50am 4.5ft 10s 7s 9 13 mph 1018mb 62f 60f
7:50am 4ft 10s 7s 9 11 mph 1017.3mb 62f 60f
6:50am 4.5ft 10s 7s 11 13 mph 1016.7mb 62f 60f
5:50am 4.5ft 11s 7s 9 13 mph 1016.6mb 62f 60f
4:50am 4.5ft 10s 7s 9 11 mph 1016.2mb 62f 60f
3:50am 4ft 11s 7s 9 11 mph 1016.3mb 62f 61f
2:50am 4ft 11s 6s 9 13 mph 1016.4mb 62f 60f
1:50am 4.5ft 11s 6s 9 13 mph 1016.5mb 62f 60f
12:50am 4.5ft 11s 6s 11 16 mph 1016.4mb 62f 60f
Tue 08/25 11:50pm 4.5ft 11s 6s 11 13 mph 1016.3mb 62f 59f
10:50pm 4.5ft 11s 6s 11 13 mph 1016.2mb 63f 59f
9:50pm 4.5ft 11s 6s 11 16 mph 1016mb 62f 59f
8:50pm 4.5ft 11s 6s 13 16 mph 1015.7mb 62f 59f
7:50pm 4.5ft 11s 6s 13 16 mph 1015.4mb 62f 59f
6:50pm 4.5ft 11s 6s 13 16 mph 1015.5mb 63f 59f
5:50pm 4.5ft 10s 6s 11 18 mph 1015.3mb 63f 60f
4:50pm 4.5ft 11s 6s 11 16 mph 1015.8mb 62f 60f
3:50pm 4.5ft 11s 7s 16 20 mph 1015.8mb 62f 60f
2:50pm 4.5ft 11s 7s 13 16 mph 1016.5mb 62f 60f
1:50pm 4ft 11s 7s 13 16 mph 1016.4mb 62f 60f
12:50pm 4.5ft 12s 7s 11 13 mph 1016.7mb 62f 60f
11:50am 4.5ft 12s 7s 9 13 mph 1017.2mb 62f 60f
10:50am 5ft 12s 8s 11 13 mph 1017.1mb 62f 59f
9:50am 5ft 12s 8s 9 13 mph 1017.2mb 62f 59f